sensor_id;sensor_type;location;lat;lon;timestamp;P1;durP1;ratioP1;P2;durP2;ratioP2
21036;SDS011;10677;50.942;4.028;2023-03-15T00:00:45;8.15;;;3.45;;
21036;SDS011;10677;50.942;4.028;2023-03-15T00:03:11;13.25;;;4.35;;
21036;SDS011;10677;50.942;4.028;2023-03-15T00:05:42;11.98;;;3.38;;
21036;SDS011;10677;50.942;4.028;2023-03-15T00:08:09;12.52;;;4.15;;
21036;SDS011;10677;50.942;4.028;2023-03-15T00:10:38;10.02;;;3.67;;
21036;SDS011;10677;50.942;4.028;2023-03-15T00:13:08;10.32;;;3.10;;
21036;SDS011;10677;50.942;4.028;2023-03-15T00:15:35;14.43;;;3.47;;
21036;SDS011;10677;50.942;4.028;2023-03-15T00:18:08;7.55;;;3.45;;
21036;SDS011;10677;50.942;4.028;2023-03-15T00:20:33;10.30;;;2.72;;
21036;SDS011;10677;50.942;4.028;2023-03-15T00:23:01;11.43;;;3.20;;
21036;SDS011;10677;50.942;4.028;2023-03-15T00:25:27;14.73;;;2.80;;
21036;SDS011;10677;50.942;4.028;2023-03-15T00:27:52;7.88;;;3.00;;
21036;SDS011;10677;50.942;4.028;2023-03-15T00:30:18;8.18;;;3.00;;
21036;SDS011;10677;50.942;4.028;2023-03-15T00:32:44;11.27;;;3.10;;
21036;SDS011;10677;50.942;4.028;2023-03-15T00:35:10;9.07;;;3.13;;
21036;SDS011;10677;50.942;4.028;2023-03-15T00:37:37;10.23;;;2.85;;
21036;SDS011;10677;50.942;4.028;2023-03-15T00:40:03;11.65;;;2.38;;
21036;SDS011;10677;50.942;4.028;2023-03-15T00:42:31;9.20;;;3.40;;
21036;SDS011;10677;50.942;4.028;2023-03-15T00:44:57;8.32;;;2.92;;
21036;SDS011;10677;50.942;4.028;2023-03-15T00:47:23;8.18;;;2.50;;
21036;SDS011;10677;50.942;4.028;2023-03-15T00:49:49;8.77;;;2.42;;
21036;SDS011;10677;50.942;4.028;2023-03-15T00:52:15;5.32;;;2.50;;
21036;SDS011;10677;50.942;4.028;2023-03-15T00:54:42;10.52;;;2.25;;
21036;SDS011;10677;50.942;4.028;2023-03-15T00:57:08;8.68;;;2.92;;
21036;SDS011;10677;50.942;4.028;2023-03-15T00:59:34;5.25;;;1.90;;
21036;SDS011;10677;50.942;4.028;2023-03-15T01:02:00;5.88;;;1.90;;
21036;SDS011;10677;50.942;4.028;2023-03-15T01:04:27;4.47;;;1.60;;
21036;SDS011;10677;50.942;4.028;2023-03-15T01:06:53;5.78;;;1.63;;
21036;SDS011;10677;50.942;4.028;2023-03-15T01:09:18;5.40;;;1.77;;
21036;SDS011;10677;50.942;4.028;2023-03-15T01:11:44;4.95;;;1.90;;
21036;SDS011;10677;50.942;4.028;2023-03-15T01:14:10;6.20;;;1.63;;
21036;SDS011;10677;50.942;4.028;2023-03-15T01:16:35;6.97;;;1.73;;
21036;SDS011;10677;50.942;4.028;2023-03-15T01:19:01;4.30;;;1.77;;
21036;SDS011;10677;50.942;4.028;2023-03-15T01:21:27;5.75;;;1.98;;
21036;SDS011;10677;50.942;4.028;2023-03-15T01:23:52;6.28;;;2.00;;
21036;SDS011;10677;50.942;4.028;2023-03-15T01:26:18;6.68;;;2.33;;
21036;SDS011;10677;50.942;4.028;2023-03-15T01:28:45;5.45;;;2.08;;
21036;SDS011;10677;50.942;4.028;2023-03-15T01:31:21;7.57;;;2.30;;
21036;SDS011;10677;50.942;4.028;2023-03-15T01:33:49;5.75;;;2.00;;
21036;SDS011;10677;50.942;4.028;2023-03-15T01:36:15;4.53;;;1.88;;
21036;SDS011;10677;50.942;4.028;2023-03-15T01:38:41;9.25;;;2.50;;
21036;SDS011;10677;50.942;4.028;2023-03-15T01:41:08;7.65;;;2.17;;
21036;SDS011;10677;50.942;4.028;2023-03-15T01:43:35;7.72;;;2.45;;
21036;SDS011;10677;50.942;4.028;2023-03-15T01:53:51;7.82;;;2.05;;
21036;SDS011;10677;50.942;4.028;2023-03-15T01:56:22;8.05;;;2.10;;
21036;SDS011;10677;50.942;4.028;2023-03-15T01:58:49;5.43;;;1.58;;
21036;SDS011;10677;50.942;4.028;2023-03-15T02:01:17;7.28;;;1.88;;
21036;SDS011;10677;50.942;4.028;2023-03-15T02:03:45;5.80;;;2.10;;
21036;SDS011;10677;50.942;4.028;2023-03-15T02:06:15;6.28;;;2.15;;
21036;SDS011;10677;50.942;4.028;2023-03-15T02:08:44;4.43;;;1.80;;
21036;SDS011;10677;50.942;4.028;2023-03-15T02:11:15;8.48;;;2.30;;
21036;SDS011;10677;50.942;4.028;2023-03-15T02:13:44;7.03;;;2.08;;
21036;SDS011;10677;50.942;4.028;2023-03-15T02:16:11;5.68;;;2.30;;
21036;SDS011;10677;50.942;4.028;2023-03-15T02:18:37;4.68;;;2.17;;
21036;SDS011;10677;50.942;4.028;2023-03-15T02:23:57;6.53;;;2.53;;
21036;SDS011;10677;50.942;4.028;2023-03-15T02:26:45;11.15;;;2.55;;
21036;SDS011;10677;50.942;4.028;2023-03-15T02:29:15;6.53;;;2.40;;
21036;SDS011;10677;50.942;4.028;2023-03-15T02:31:41;10.23;;;2.88;;
21036;SDS011;10677;50.942;4.028;2023-03-15T02:34:07;9.75;;;2.60;;
21036;SDS011;10677;50.942;4.028;2023-03-15T02:36:34;6.40;;;2.53;;
21036;SDS011;10677;50.942;4.028;2023-03-15T02:39:00;9.10;;;2.58;;
21036;SDS011;10677;50.942;4.028;2023-03-15T02:41:37;9.75;;;2.70;;
21036;SDS011;10677;50.942;4.028;2023-03-15T02:46:32;6.45;;;2.85;;
21036;SDS011;10677;50.942;4.028;2023-03-15T02:48:58;8.35;;;3.35;;
21036;SDS011;10677;50.942;4.028;2023-03-15T02:51:26;7.78;;;2.92;;
21036;SDS011;10677;50.942;4.028;2023-03-15T02:53:53;7.95;;;2.67;;
21036;SDS011;10677;50.942;4.028;2023-03-15T02:56:18;6.38;;;2.92;;
21036;SDS011;10677;50.942;4.028;2023-03-15T02:58:44;8.40;;;3.00;;
21036;SDS011;10677;50.942;4.028;2023-03-15T03:01:11;7.63;;;3.20;;
21036;SDS011;10677;50.942;4.028;2023-03-15T03:03:41;8.77;;;3.40;;
21036;SDS011;10677;50.942;4.028;2023-03-15T03:06:08;8.68;;;3.38;;
21036;SDS011;10677;50.942;4.028;2023-03-15T03:08:35;8.95;;;3.55;;
21036;SDS011;10677;50.942;4.028;2023-03-15T03:11:00;8.57;;;3.25;;
21036;SDS011;10677;50.942;4.028;2023-03-15T03:13:26;14.63;;;4.07;;
21036;SDS011;10677;50.942;4.028;2023-03-15T03:15:52;10.38;;;3.85;;
21036;SDS011;10677;50.942;4.028;2023-03-15T03:18:28;10.38;;;3.28;;
21036;SDS011;10677;50.942;4.028;2023-03-15T03:20:59;9.10;;;3.35;;
21036;SDS011;10677;50.942;4.028;2023-03-15T03:23:26;10.15;;;3.42;;
21036;SDS011;10677;50.942;4.028;2023-03-15T03:25:53;10.52;;;3.42;;
21036;SDS011;10677;50.942;4.028;2023-03-15T03:28:20;10.55;;;3.45;;
21036;SDS011;10677;50.942;4.028;2023-03-15T03:30:48;9.57;;;3.10;;
21036;SDS011;10677;50.942;4.028;2023-03-15T03:33:14;9.77;;;3.85;;
21036;SDS011;10677;50.942;4.028;2023-03-15T03:35:40;7.68;;;3.05;;
21036;SDS011;10677;50.942;4.028;2023-03-15T03:38:06;10.07;;;3.10;;
21036;SDS011;10677;50.942;4.028;2023-03-15T03:40:36;11.95;;;3.65;;
21036;SDS011;10677;50.942;4.028;2023-03-15T03:43:02;9.88;;;4.30;;
21036;SDS011;10677;50.942;4.028;2023-03-15T03:45:28;6.68;;;3.72;;
21036;SDS011;10677;50.942;4.028;2023-03-15T03:47:54;9.73;;;3.67;;
21036;SDS011;10677;50.942;4.028;2023-03-15T03:50:19;15.05;;;4.00;;
21036;SDS011;10677;50.942;4.028;2023-03-15T03:52:45;11.10;;;4.00;;
21036;SDS011;10677;50.942;4.028;2023-03-15T03:55:11;8.70;;;4.13;;
21036;SDS011;10677;50.942;4.028;2023-03-15T03:57:38;8.80;;;4.57;;
21036;SDS011;10677;50.942;4.028;2023-03-15T04:00:05;12.23;;;4.57;;
21036;SDS011;10677;50.942;4.028;2023-03-15T04:02:32;10.15;;;4.72;;
21036;SDS011;10677;50.942;4.028;2023-03-15T04:04:58;10.85;;;4.68;;
21036;SDS011;10677;50.942;4.028;2023-03-15T04:07:23;13.68;;;5.07;;
21036;SDS011;10677;50.942;4.028;2023-03-15T04:09:49;11.15;;;4.38;;
21036;SDS011;10677;50.942;4.028;2023-03-15T04:12:15;10.82;;;5.15;;
21036;SDS011;10677;50.942;4.028;2023-03-15T04:14:41;9.13;;;4.88;;
21036;SDS011;10677;50.942;4.028;2023-03-15T04:17:06;11.40;;;4.60;;
21036;SDS011;10677;50.942;4.028;2023-03-15T04:19:32;10.85;;;4.72;;
21036;SDS011;10677;50.942;4.028;2023-03-15T04:21:58;12.88;;;4.75;;
21036;SDS011;10677;50.942;4.028;2023-03-15T04:24:31;8.95;;;4.97;;
21036;SDS011;10677;50.942;4.028;2023-03-15T04:27:00;9.65;;;4.47;;
21036;SDS011;10677;50.942;4.028;2023-03-15T04:29:27;10.32;;;4.82;;
21036;SDS011;10677;50.942;4.028;2023-03-15T04:31:53;13.32;;;5.93;;
21036;SDS011;10677;50.942;4.028;2023-03-15T04:34:25;13.65;;;5.30;;
21036;SDS011;10677;50.942;4.028;2023-03-15T04:36:54;13.23;;;6.03;;
21036;SDS011;10677;50.942;4.028;2023-03-15T04:39:21;10.50;;;5.50;;
21036;SDS011;10677;50.942;4.028;2023-03-15T04:44:53;11.18;;;5.70;;
21036;SDS011;10677;50.942;4.028;2023-03-15T04:47:18;13.05;;;5.43;;
21036;SDS011;10677;50.942;4.028;2023-03-15T04:49:47;12.70;;;5.60;;
21036;SDS011;10677;50.942;4.028;2023-03-15T04:52:12;10.80;;;5.13;;
21036;SDS011;10677;50.942;4.028;2023-03-15T04:54:39;13.80;;;5.25;;
21036;SDS011;10677;50.942;4.028;2023-03-15T04:57:05;16.13;;;5.35;;
21036;SDS011;10677;50.942;4.028;2023-03-15T04:59:31;9.90;;;4.82;;
21036;SDS011;10677;50.942;4.028;2023-03-15T05:01:56;10.80;;;5.05;;
21036;SDS011;10677;50.942;4.028;2023-03-15T05:04:22;13.07;;;5.30;;
21036;SDS011;10677;50.942;4.028;2023-03-15T05:06:48;13.88;;;5.05;;
21036;SDS011;10677;50.942;4.028;2023-03-15T05:09:14;10.10;;;4.65;;
21036;SDS011;10677;50.942;4.028;2023-03-15T05:11:43;11.98;;;4.68;;
21036;SDS011;10677;50.942;4.028;2023-03-15T05:14:10;13.85;;;5.05;;
21036;SDS011;10677;50.942;4.028;2023-03-15T05:16:37;12.90;;;5.00;;
21036;SDS011;10677;50.942;4.028;2023-03-15T05:19:03;11.82;;;4.45;;
21036;SDS011;10677;50.942;4.028;2023-03-15T05:21:29;9.52;;;4.63;;
21036;SDS011;10677;50.942;4.028;2023-03-15T05:23:56;9.13;;;5.00;;
21036;SDS011;10677;50.942;4.028;2023-03-15T05:26:22;10.65;;;4.88;;
21036;SDS011;10677;50.942;4.028;2023-03-15T05:28:48;10.23;;;4.35;;
21036;SDS011;10677;50.942;4.028;2023-03-15T05:31:16;12.73;;;4.35;;
21036;SDS011;10677;50.942;4.028;2023-03-15T05:33:42;11.05;;;5.22;;
21036;SDS011;10677;50.942;4.028;2023-03-15T05:36:11;10.35;;;4.72;;
21036;SDS011;10677;50.942;4.028;2023-03-15T05:38:41;8.90;;;4.63;;
21036;SDS011;10677;50.942;4.028;2023-03-15T05:41:07;12.40;;;4.95;;
21036;SDS011;10677;50.942;4.028;2023-03-15T05:43:33;8.82;;;5.07;;
21036;SDS011;10677;50.942;4.028;2023-03-15T05:45:59;10.48;;;5.15;;
21036;SDS011;10677;50.942;4.028;2023-03-15T05:48:24;14.77;;;5.28;;
21036;SDS011;10677;50.942;4.028;2023-03-15T05:50:51;10.38;;;5.78;;
21036;SDS011;10677;50.942;4.028;2023-03-15T05:53:17;14.82;;;5.75;;
21036;SDS011;10677;50.942;4.028;2023-03-15T05:55:43;12.35;;;5.97;;
21036;SDS011;10677;50.942;4.028;2023-03-15T05:58:08;14.07;;;6.18;;
21036;SDS011;10677;50.942;4.028;2023-03-15T06:00:34;15.55;;;6.07;;
21036;SDS011;10677;50.942;4.028;2023-03-15T06:03:00;16.15;;;6.82;;
21036;SDS011;10677;50.942;4.028;2023-03-15T06:05:25;12.63;;;6.72;;
21036;SDS011;10677;50.942;4.028;2023-03-15T06:07:51;15.30;;;7.75;;
21036;SDS011;10677;50.942;4.028;2023-03-15T06:10:17;14.98;;;7.55;;
21036;SDS011;10677;50.942;4.028;2023-03-15T06:12:43;15.05;;;7.68;;
21036;SDS011;10677;50.942;4.028;2023-03-15T06:15:08;15.13;;;7.80;;
21036;SDS011;10677;50.942;4.028;2023-03-15T06:17:34;18.45;;;7.65;;
21036;SDS011;10677;50.942;4.028;2023-03-15T06:20:00;15.15;;;8.77;;
21036;SDS011;10677;50.942;4.028;2023-03-15T06:22:26;19.08;;;8.38;;
21036;SDS011;10677;50.942;4.028;2023-03-15T06:24:52;13.10;;;7.82;;
21036;SDS011;10677;50.942;4.028;2023-03-15T06:27:17;18.15;;;7.75;;
21036;SDS011;10677;50.942;4.028;2023-03-15T06:29:46;16.95;;;8.65;;
21036;SDS011;10677;50.942;4.028;2023-03-15T06:32:13;14.77;;;8.73;;
21036;SDS011;10677;50.942;4.028;2023-03-15T06:34:38;14.48;;;8.70;;
21036;SDS011;10677;50.942;4.028;2023-03-15T06:37:04;18.33;;;8.55;;
21036;SDS011;10677;50.942;4.028;2023-03-15T06:39:30;13.45;;;8.13;;
21036;SDS011;10677;50.942;4.028;2023-03-15T06:41:58;19.23;;;8.25;;
21036;SDS011;10677;50.942;4.028;2023-03-15T06:44:26;13.98;;;7.60;;
21036;SDS011;10677;50.942;4.028;2023-03-15T06:46:52;21.45;;;7.85;;
21036;SDS011;10677;50.942;4.028;2023-03-15T06:49:18;13.82;;;7.57;;
21036;SDS011;10677;50.942;4.028;2023-03-15T06:51:44;14.20;;;7.93;;
21036;SDS011;10677;50.942;4.028;2023-03-15T06:54:10;12.88;;;7.15;;
21036;SDS011;10677;50.942;4.028;2023-03-15T06:56:35;11.85;;;7.30;;
21036;SDS011;10677;50.942;4.028;2023-03-15T06:59:02;12.43;;;7.90;;
21036;SDS011;10677;50.942;4.028;2023-03-15T07:01:28;15.02;;;7.35;;
21036;SDS011;10677;50.942;4.028;2023-03-15T07:03:54;15.05;;;7.72;;
21036;SDS011;10677;50.942;4.028;2023-03-15T07:06:24;14.38;;;9.05;;
21036;SDS011;10677;50.942;4.028;2023-03-15T07:08:51;10.93;;;5.90;;
21036;SDS011;10677;50.942;4.028;2023-03-15T07:11:17;13.13;;;7.25;;
21036;SDS011;10677;50.942;4.028;2023-03-15T07:13:42;13.80;;;7.05;;
21036;SDS011;10677;50.942;4.028;2023-03-15T07:19:11;12.32;;;6.75;;
21036;SDS011;10677;50.942;4.028;2023-03-15T07:21:37;9.98;;;5.68;;
21036;SDS011;10677;50.942;4.028;2023-03-15T07:24:02;10.50;;;5.57;;
21036;SDS011;10677;50.942;4.028;2023-03-15T07:26:28;11.65;;;6.10;;
21036;SDS011;10677;50.942;4.028;2023-03-15T07:28:54;9.30;;;5.15;;
21036;SDS011;10677;50.942;4.028;2023-03-15T07:31:20;10.98;;;5.47;;
21036;SDS011;10677;50.942;4.028;2023-03-15T07:33:46;11.23;;;5.22;;
21036;SDS011;10677;50.942;4.028;2023-03-15T07:36:11;9.95;;;4.75;;
21036;SDS011;10677;50.942;4.028;2023-03-15T07:38:37;7.85;;;4.47;;
21036;SDS011;10677;50.942;4.028;2023-03-15T07:41:04;12.52;;;4.82;;
21036;SDS011;10677;50.942;4.028;2023-03-15T07:43:30;12.50;;;5.10;;
21036;SDS011;10677;50.942;4.028;2023-03-15T07:45:56;12.25;;;4.85;;
21036;SDS011;10677;50.942;4.028;2023-03-15T07:48:25;8.90;;;5.10;;
21036;SDS011;10677;50.942;4.028;2023-03-15T07:50:55;8.13;;;4.32;;
21036;SDS011;10677;50.942;4.028;2023-03-15T07:53:22;10.30;;;5.10;;
21036;SDS011;10677;50.942;4.028;2023-03-15T07:55:48;9.23;;;4.28;;
21036;SDS011;10677;50.942;4.028;2023-03-15T07:58:14;9.75;;;4.22;;
21036;SDS011;10677;50.942;4.028;2023-03-15T08:00:40;10.35;;;3.97;;
21036;SDS011;10677;50.942;4.028;2023-03-15T08:03:07;7.93;;;4.20;;
21036;SDS011;10677;50.942;4.028;2023-03-15T08:05:33;14.88;;;3.85;;
21036;SDS011;10677;50.942;4.028;2023-03-15T08:07:59;10.25;;;3.97;;
21036;SDS011;10677;50.942;4.028;2023-03-15T08:10:25;8.25;;;3.88;;
21036;SDS011;10677;50.942;4.028;2023-03-15T08:12:51;8.30;;;3.85;;
21036;SDS011;10677;50.942;4.028;2023-03-15T08:15:17;7.35;;;3.92;;
21036;SDS011;10677;50.942;4.028;2023-03-15T08:17:46;7.13;;;3.88;;
21036;SDS011;10677;50.942;4.028;2023-03-15T08:23:16;8.15;;;3.40;;
21036;SDS011;10677;50.942;4.028;2023-03-15T08:25:42;8.02;;;3.75;;
21036;SDS011;10677;50.942;4.028;2023-03-15T08:28:08;9.15;;;3.35;;
21036;SDS011;10677;50.942;4.028;2023-03-15T08:30:35;6.75;;;3.58;;
21036;SDS011;10677;50.942;4.028;2023-03-15T08:33:01;10.70;;;3.92;;
21036;SDS011;10677;50.942;4.028;2023-03-15T08:35:27;7.22;;;4.40;;
21036;SDS011;10677;50.942;4.028;2023-03-15T08:37:55;7.88;;;3.25;;
21036;SDS011;10677;50.942;4.028;2023-03-15T08:40:21;9.82;;;4.15;;
21036;SDS011;10677;50.942;4.028;2023-03-15T08:42:53;7.68;;;3.55;;
21036;SDS011;10677;50.942;4.028;2023-03-15T08:45:20;8.10;;;3.22;;
21036;SDS011;10677;50.942;4.028;2023-03-15T08:47:53;7.57;;;3.53;;
21036;SDS011;10677;50.942;4.028;2023-03-15T08:50:20;8.15;;;3.47;;
21036;SDS011;10677;50.942;4.028;2023-03-15T08:52:48;9.07;;;4.53;;
21036;SDS011;10677;50.942;4.028;2023-03-15T08:55:14;8.77;;;3.90;;
21036;SDS011;10677;50.942;4.028;2023-03-15T08:57:40;8.45;;;4.18;;
21036;SDS011;10677;50.942;4.028;2023-03-15T09:00:07;9.63;;;4.22;;
21036;SDS011;10677;50.942;4.028;2023-03-15T09:02:49;10.32;;;4.70;;
21036;SDS011;10677;50.942;4.028;2023-03-15T09:05:16;7.78;;;4.30;;
21036;SDS011;10677;50.942;4.028;2023-03-15T09:07:42;15.45;;;7.13;;
21036;SDS011;10677;50.942;4.028;2023-03-15T09:10:09;5.03;;;2.13;;
21036;SDS011;10677;50.942;4.028;2023-03-15T09:12:40;13.88;;;5.28;;
21036;SDS011;10677;50.942;4.028;2023-03-15T09:15:14;5.97;;;2.72;;
21036;SDS011;10677;50.942;4.028;2023-03-15T09:17:42;9.65;;;3.40;;
21036;SDS011;10677;50.942;4.028;2023-03-15T09:20:09;9.20;;;3.40;;
21036;SDS011;10677;50.942;4.028;2023-03-15T09:22:39;8.23;;;3.10;;
21036;SDS011;10677;50.942;4.028;2023-03-15T09:25:07;6.72;;;2.80;;
21036;SDS011;10677;50.942;4.028;2023-03-15T09:27:34;8.88;;;3.33;;
21036;SDS011;10677;50.942;4.028;2023-03-15T09:30:00;5.88;;;2.53;;
21036;SDS011;10677;50.942;4.028;2023-03-15T09:32:26;4.70;;;1.85;;
21036;SDS011;10677;50.942;4.028;2023-03-15T09:34:52;5.38;;;1.73;;
21036;SDS011;10677;50.942;4.028;2023-03-15T09:37:18;7.47;;;1.70;;
21036;SDS011;10677;50.942;4.028;2023-03-15T09:39:45;3.90;;;1.35;;
21036;SDS011;10677;50.942;4.028;2023-03-15T09:42:16;4.30;;;1.70;;
21036;SDS011;10677;50.942;4.028;2023-03-15T09:44:50;5.35;;;1.73;;
21036;SDS011;10677;50.942;4.028;2023-03-15T09:47:27;5.72;;;1.92;;
21036;SDS011;10677;50.942;4.028;2023-03-15T09:53:03;4.45;;;1.92;;
21036;SDS011;10677;50.942;4.028;2023-03-15T09:55:36;4.38;;;2.00;;
21036;SDS011;10677;50.942;4.028;2023-03-15T09:58:03;7.15;;;2.22;;
21036;SDS011;10677;50.942;4.028;2023-03-15T10:03:26;9.20;;;2.97;;
21036;SDS011;10677;50.942;4.028;2023-03-15T10:06:00;5.38;;;2.58;;
21036;SDS011;10677;50.942;4.028;2023-03-15T10:08:31;8.27;;;2.10;;
21036;SDS011;10677;50.942;4.028;2023-03-15T10:11:09;8.85;;;2.25;;
21036;SDS011;10677;50.942;4.028;2023-03-15T10:16:25;7.45;;;2.90;;
21036;SDS011;10677;50.942;4.028;2023-03-15T10:24:27;3.75;;;1.80;;
21036;SDS011;10677;50.942;4.028;2023-03-15T10:27:14;5.22;;;2.10;;
21036;SDS011;10677;50.942;4.028;2023-03-15T10:29:50;5.82;;;1.88;;
21036;SDS011;10677;50.942;4.028;2023-03-15T10:32:19;10.98;;;2.13;;
21036;SDS011;10677;50.942;4.028;2023-03-15T10:34:51;6.40;;;2.45;;
21036;SDS011;10677;50.942;4.028;2023-03-15T10:37:22;4.38;;;1.90;;
21036;SDS011;10677;50.942;4.028;2023-03-15T10:39:53;7.22;;;2.20;;
21036;SDS011;10677;50.942;4.028;2023-03-15T10:42:28;3.45;;;1.65;;
21036;SDS011;10677;50.942;4.028;2023-03-15T10:44:56;5.68;;;1.60;;
21036;SDS011;10677;50.942;4.028;2023-03-15T10:47:23;5.05;;;1.73;;
21036;SDS011;10677;50.942;4.028;2023-03-15T10:49:58;4.80;;;1.33;;
21036;SDS011;10677;50.942;4.028;2023-03-15T10:52:35;6.18;;;1.35;;
21036;SDS011;10677;50.942;4.028;2023-03-15T10:55:10;2.22;;;1.10;;
21036;SDS011;10677;50.942;4.028;2023-03-15T10:57:50;4.45;;;1.52;;
21036;SDS011;10677;50.942;4.028;2023-03-15T11:03:03;6.13;;;2.22;;
21036;SDS011;10677;50.942;4.028;2023-03-15T11:05:45;3.83;;;1.25;;
21036;SDS011;10677;50.942;4.028;2023-03-15T11:08:16;3.08;;;1.45;;
21036;SDS011;10677;50.942;4.028;2023-03-15T11:10:47;3.60;;;1.08;;
21036;SDS011;10677;50.942;4.028;2023-03-15T11:13:25;4.05;;;1.35;;
21036;SDS011;10677;50.942;4.028;2023-03-15T11:16:02;3.35;;;1.27;;
21036;SDS011;10677;50.942;4.028;2023-03-15T11:21:25;3.80;;;1.10;;
21036;SDS011;10677;50.942;4.028;2023-03-15T11:23:57;5.55;;;1.38;;
21036;SDS011;10677;50.942;4.028;2023-03-15T11:26:27;4.45;;;1.35;;
21036;SDS011;10677;50.942;4.028;2023-03-15T11:28:58;7.28;;;1.48;;
21036;SDS011;10677;50.942;4.028;2023-03-15T11:31:34;3.40;;;1.00;;
21036;SDS011;10677;50.942;4.028;2023-03-15T11:34:05;4.88;;;1.20;;
21036;SDS011;10677;50.942;4.028;2023-03-15T11:36:46;4.72;;;1.40;;
21036;SDS011;10677;50.942;4.028;2023-03-15T11:39:18;5.28;;;1.45;;
21036;SDS011;10677;50.942;4.028;2023-03-15T11:41:55;5.53;;;1.42;;
21036;SDS011;10677;50.942;4.028;2023-03-15T11:47:12;4.90;;;1.48;;
21036;SDS011;10677;50.942;4.028;2023-03-15T11:49:58;2.33;;;1.05;;
21036;SDS011;10677;50.942;4.028;2023-03-15T11:52:24;2.50;;;1.10;;
21036;SDS011;10677;50.942;4.028;2023-03-15T11:54:56;2.95;;;1.10;;
21036;SDS011;10677;50.942;4.028;2023-03-15T12:00:19;3.20;;;1.10;;
21036;SDS011;10677;50.942;4.028;2023-03-15T12:02:55;3.67;;;1.10;;
21036;SDS011;10677;50.942;4.028;2023-03-15T12:16:24;5.90;;;1.20;;
21036;SDS011;10677;50.942;4.028;2023-03-15T12:18:57;2.13;;;0.70;;
21036;SDS011;10677;50.942;4.028;2023-03-15T12:21:32;2.55;;;0.90;;
21036;SDS011;10677;50.942;4.028;2023-03-15T12:24:05;2.92;;;0.90;;
21036;SDS011;10677;50.942;4.028;2023-03-15T12:26:45;3.53;;;0.60;;
21036;SDS011;10677;50.942;4.028;2023-03-15T12:36:55;1.77;;;0.98;;
21036;SDS011;10677;50.942;4.028;2023-03-15T12:45:55;3.45;;;0.73;;
21036;SDS011;10677;50.942;4.028;2023-03-15T12:48:18;1.10;;;0.50;;
21036;SDS011;10677;50.942;4.028;2023-03-15T12:50:50;0.75;;;0.40;;
21036;SDS011;10677;50.942;4.028;2023-03-15T12:53:34;3.00;;;0.68;;
21036;SDS011;10677;50.942;4.028;2023-03-15T12:58:47;1.77;;;0.68;;
21036;SDS011;10677;50.942;4.028;2023-03-15T13:01:18;1.17;;;0.65;;
21036;SDS011;10677;50.942;4.028;2023-03-15T13:03:55;1.63;;;0.70;;
21036;SDS011;10677;50.942;4.028;2023-03-15T13:14:41;2.35;;;1.30;;
21036;SDS011;10677;50.942;4.028;2023-03-15T13:22:56;2.85;;;1.00;;
21036;SDS011;10677;50.942;4.028;2023-03-15T13:28:30;3.75;;;1.20;;
21036;SDS011;10677;50.942;4.028;2023-03-15T13:31:01;2.33;;;0.90;;
21036;SDS011;10677;50.942;4.028;2023-03-15T13:33:54;2.63;;;1.00;;
21036;SDS011;10677;50.942;4.028;2023-03-15T13:40:10;2.70;;;1.00;;
21036;SDS011;10677;50.942;4.028;2023-03-15T13:42:39;4.97;;;1.30;;
21036;SDS011;10677;50.942;4.028;2023-03-15T13:47:35;3.08;;;1.20;;
21036;SDS011;10677;50.942;4.028;2023-03-15T13:50:03;4.00;;;1.20;;
21036;SDS011;10677;50.942;4.028;2023-03-15T13:52:30;3.15;;;0.90;;
21036;SDS011;10677;50.942;4.028;2023-03-15T13:54:56;2.50;;;1.05;;
21036;SDS011;10677;50.942;4.028;2023-03-15T13:57:23;2.47;;;1.38;;
21036;SDS011;10677;50.942;4.028;2023-03-15T13:59:50;2.10;;;0.95;;
21036;SDS011;10677;50.942;4.028;2023-03-15T14:05:24;4.20;;;1.10;;
21036;SDS011;10677;50.942;4.028;2023-03-15T14:10:38;3.33;;;1.23;;
21036;SDS011;10677;50.942;4.028;2023-03-15T14:13:21;4.10;;;1.20;;
21036;SDS011;10677;50.942;4.028;2023-03-15T14:15:49;4.20;;;1.20;;
21036;SDS011;10677;50.942;4.028;2023-03-15T14:18:38;3.22;;;1.10;;
21036;SDS011;10677;50.942;4.028;2023-03-15T14:23:55;3.17;;;1.20;;
21036;SDS011;10677;50.942;4.028;2023-03-15T14:26:28;2.83;;;1.38;;
21036;SDS011;10677;50.942;4.028;2023-03-15T14:28:58;3.47;;;1.20;;
21036;SDS011;10677;50.942;4.028;2023-03-15T14:31:38;3.05;;;1.10;;
21036;SDS011;10677;50.942;4.028;2023-03-15T14:34:22;4.18;;;1.63;;
21036;SDS011;10677;50.942;4.028;2023-03-15T14:36:53;5.35;;;1.38;;
21036;SDS011;10677;50.942;4.028;2023-03-15T14:39:25;5.20;;;1.63;;
21036;SDS011;10677;50.942;4.028;2023-03-15T14:41:53;2.88;;;1.40;;
21036;SDS011;10677;50.942;4.028;2023-03-15T14:44:19;7.53;;;2.03;;
21036;SDS011;10677;50.942;4.028;2023-03-15T14:46:45;7.25;;;2.67;;
21036;SDS011;10677;50.942;4.028;2023-03-15T14:49:12;4.78;;;1.45;;
21036;SDS011;10677;50.942;4.028;2023-03-15T14:51:42;2.78;;;1.17;;
21036;SDS011;10677;50.942;4.028;2023-03-15T14:54:08;4.40;;;1.10;;
21036;SDS011;10677;50.942;4.028;2023-03-15T14:56:37;4.60;;;1.48;;
21036;SDS011;10677;50.942;4.028;2023-03-15T14:59:08;2.40;;;0.93;;
21036;SDS011;10677;50.942;4.028;2023-03-15T15:01:36;2.60;;;1.23;;
21036;SDS011;10677;50.942;4.028;2023-03-15T15:04:04;3.42;;;1.10;;
21036;SDS011;10677;50.942;4.028;2023-03-15T15:06:30;3.17;;;1.30;;
21036;SDS011;10677;50.942;4.028;2023-03-15T15:08:57;2.70;;;1.38;;
21036;SDS011;10677;50.942;4.028;2023-03-15T15:11:25;3.05;;;1.02;;
21036;SDS011;10677;50.942;4.028;2023-03-15T15:13:51;2.63;;;1.02;;
21036;SDS011;10677;50.942;4.028;2023-03-15T15:16:17;5.00;;;1.50;;
21036;SDS011;10677;50.942;4.028;2023-03-15T15:18:43;3.08;;;1.27;;
21036;SDS011;10677;50.942;4.028;2023-03-15T15:21:13;4.50;;;1.20;;
21036;SDS011;10677;50.942;4.028;2023-03-15T15:23:53;4.57;;;1.40;;
21036;SDS011;10677;50.942;4.028;2023-03-15T15:26:20;3.50;;;1.58;;
21036;SDS011;10677;50.942;4.028;2023-03-15T15:28:47;6.05;;;1.33;;
21036;SDS011;10677;50.942;4.028;2023-03-15T15:31:18;5.47;;;1.60;;
21036;SDS011;10677;50.942;4.028;2023-03-15T15:33:46;4.10;;;1.52;;
21036;SDS011;10677;50.942;4.028;2023-03-15T15:36:23;2.70;;;1.35;;
21036;SDS011;10677;50.942;4.028;2023-03-15T15:38:59;5.70;;;1.70;;
21036;SDS011;10677;50.942;4.028;2023-03-15T15:41:28;3.55;;;1.80;;
21036;SDS011;10677;50.942;4.028;2023-03-15T15:44:00;4.80;;;1.50;;
21036;SDS011;10677;50.942;4.028;2023-03-15T15:46:26;4.93;;;1.70;;
21036;SDS011;10677;50.942;4.028;2023-03-15T15:48:52;4.35;;;1.60;;
21036;SDS011;10677;50.942;4.028;2023-03-15T15:51:40;5.28;;;1.70;;
21036;SDS011;10677;50.942;4.028;2023-03-15T15:54:19;5.72;;;1.77;;
21036;SDS011;10677;50.942;4.028;2023-03-15T15:56:57;5.00;;;1.77;;
21036;SDS011;10677;50.942;4.028;2023-03-15T15:59:24;4.97;;;1.45;;
21036;SDS011;10677;50.942;4.028;2023-03-15T16:01:51;3.63;;;1.55;;
21036;SDS011;10677;50.942;4.028;2023-03-15T16:04:17;5.82;;;1.80;;
21036;SDS011;10677;50.942;4.028;2023-03-15T16:06:49;5.05;;;1.63;;
21036;SDS011;10677;50.942;4.028;2023-03-15T16:09:20;4.13;;;1.50;;
21036;SDS011;10677;50.942;4.028;2023-03-15T16:11:46;5.03;;;1.75;;
21036;SDS011;10677;50.942;4.028;2023-03-15T16:14:13;4.00;;;1.33;;
21036;SDS011;10677;50.942;4.028;2023-03-15T16:16:40;4.05;;;1.40;;
21036;SDS011;10677;50.942;4.028;2023-03-15T16:19:08;4.13;;;1.58;;
21036;SDS011;10677;50.942;4.028;2023-03-15T16:21:37;3.63;;;1.30;;
21036;SDS011;10677;50.942;4.028;2023-03-15T16:24:16;4.03;;;1.58;;
21036;SDS011;10677;50.942;4.028;2023-03-15T16:26:49;6.82;;;1.48;;
21036;SDS011;10677;50.942;4.028;2023-03-15T16:29:18;5.15;;;1.83;;
21036;SDS011;10677;50.942;4.028;2023-03-15T16:31:47;4.18;;;1.88;;
21036;SDS011;10677;50.942;4.028;2023-03-15T16:34:13;10.45;;;1.80;;
21036;SDS011;10677;50.942;4.028;2023-03-15T16:36:41;4.72;;;1.70;;
21036;SDS011;10677;50.942;4.028;2023-03-15T16:39:13;2.97;;;1.50;;